sensor_id;sensor_type;location;lat;lon;timestamp;P1;durP1;ratioP1;P2;durP2;ratioP2
23565;SDS011;22140;48.988;8.544;2023-03-08T00:00:48;13.15;;;4.97;;
23565;SDS011;22140;48.988;8.544;2023-03-08T00:05:50;14.80;;;5.13;;
23565;SDS011;22140;48.988;8.544;2023-03-08T00:10:51;13.73;;;4.30;;
23565;SDS011;22140;48.988;8.544;2023-03-08T00:15:52;12.00;;;4.88;;
23565;SDS011;22140;48.988;8.544;2023-03-08T00:21:01;13.53;;;4.80;;
23565;SDS011;22140;48.988;8.544;2023-03-08T00:26:03;14.23;;;4.78;;
23565;SDS011;22140;48.988;8.544;2023-03-08T00:31:06;12.95;;;4.28;;
23565;SDS011;22140;48.988;8.544;2023-03-08T00:36:14;15.60;;;5.03;;
23565;SDS011;22140;48.988;8.544;2023-03-08T00:41:16;18.08;;;5.50;;
23565;SDS011;22140;48.988;8.544;2023-03-08T00:46:18;13.17;;;4.30;;
23565;SDS011;22140;48.988;8.544;2023-03-08T00:51:20;12.73;;;4.50;;
23565;SDS011;22140;48.988;8.544;2023-03-08T00:56:21;13.57;;;4.60;;
23565;SDS011;22140;48.988;8.544;2023-03-08T01:01:22;12.80;;;4.67;;
23565;SDS011;22140;48.988;8.544;2023-03-08T01:06:24;12.00;;;4.57;;
23565;SDS011;22140;48.988;8.544;2023-03-08T01:11:26;13.47;;;4.83;;
23565;SDS011;22140;48.988;8.544;2023-03-08T01:16:28;12.48;;;4.85;;
23565;SDS011;22140;48.988;8.544;2023-03-08T01:21:31;13.65;;;5.18;;
23565;SDS011;22140;48.988;8.544;2023-03-08T01:26:32;13.87;;;4.80;;
23565;SDS011;22140;48.988;8.544;2023-03-08T01:31:33;10.93;;;4.25;;
23565;SDS011;22140;48.988;8.544;2023-03-08T01:36:35;13.60;;;4.20;;
23565;SDS011;22140;48.988;8.544;2023-03-08T01:41:36;13.65;;;4.32;;
23565;SDS011;22140;48.988;8.544;2023-03-08T01:46:38;13.30;;;4.78;;
23565;SDS011;22140;48.988;8.544;2023-03-08T01:51:43;12.87;;;4.40;;
23565;SDS011;22140;48.988;8.544;2023-03-08T01:56:47;13.82;;;4.72;;
23565;SDS011;22140;48.988;8.544;2023-03-08T02:01:49;13.50;;;4.50;;
23565;SDS011;22140;48.988;8.544;2023-03-08T02:06:50;12.32;;;4.38;;
23565;SDS011;22140;48.988;8.544;2023-03-08T02:11:52;10.75;;;4.13;;
23565;SDS011;22140;48.988;8.544;2023-03-08T02:16:53;12.77;;;4.30;;
23565;SDS011;22140;48.988;8.544;2023-03-08T02:21:55;12.27;;;4.50;;
23565;SDS011;22140;48.988;8.544;2023-03-08T02:27:01;13.83;;;4.23;;
23565;SDS011;22140;48.988;8.544;2023-03-08T02:32:03;12.77;;;4.22;;
23565;SDS011;22140;48.988;8.544;2023-03-08T02:37:04;12.68;;;4.15;;
23565;SDS011;22140;48.988;8.544;2023-03-08T02:42:05;10.53;;;4.00;;
23565;SDS011;22140;48.988;8.544;2023-03-08T02:47:07;13.13;;;4.30;;
23565;SDS011;22140;48.988;8.544;2023-03-08T02:52:08;11.07;;;4.03;;
23565;SDS011;22140;48.988;8.544;2023-03-08T02:57:10;11.88;;;4.57;;
23565;SDS011;22140;48.988;8.544;2023-03-08T03:02:11;12.13;;;4.28;;
23565;SDS011;22140;48.988;8.544;2023-03-08T03:07:12;10.93;;;4.00;;
23565;SDS011;22140;48.988;8.544;2023-03-08T03:12:13;10.73;;;3.85;;
23565;SDS011;22140;48.988;8.544;2023-03-08T03:17:15;10.13;;;3.50;;
23565;SDS011;22140;48.988;8.544;2023-03-08T03:22:16;10.88;;;3.60;;
23565;SDS011;22140;48.988;8.544;2023-03-08T03:27:18;10.55;;;3.80;;
23565;SDS011;22140;48.988;8.544;2023-03-08T03:32:19;11.97;;;3.87;;
23565;SDS011;22140;48.988;8.544;2023-03-08T03:37:20;10.38;;;3.70;;
23565;SDS011;22140;48.988;8.544;2023-03-08T03:42:22;10.70;;;3.57;;
23565;SDS011;22140;48.988;8.544;2023-03-08T03:47:23;12.88;;;4.13;;
23565;SDS011;22140;48.988;8.544;2023-03-08T03:52:24;13.23;;;3.47;;
23565;SDS011;22140;48.988;8.544;2023-03-08T03:57:26;11.60;;;4.03;;
23565;SDS011;22140;48.988;8.544;2023-03-08T04:02:27;9.85;;;2.95;;
23565;SDS011;22140;48.988;8.544;2023-03-08T04:07:29;9.40;;;3.30;;
23565;SDS011;22140;48.988;8.544;2023-03-08T04:12:30;9.52;;;3.25;;
23565;SDS011;22140;48.988;8.544;2023-03-08T04:17:32;12.05;;;3.53;;
23565;SDS011;22140;48.988;8.544;2023-03-08T04:22:33;11.63;;;2.73;;
23565;SDS011;22140;48.988;8.544;2023-03-08T04:27:34;9.10;;;3.10;;
23565;SDS011;22140;48.988;8.544;2023-03-08T04:32:35;9.80;;;3.33;;
23565;SDS011;22140;48.988;8.544;2023-03-08T04:37:37;9.55;;;3.00;;
23565;SDS011;22140;48.988;8.544;2023-03-08T04:42:39;9.02;;;2.90;;
23565;SDS011;22140;48.988;8.544;2023-03-08T04:47:43;11.17;;;2.97;;
23565;SDS011;22140;48.988;8.544;2023-03-08T04:52:44;11.85;;;3.35;;
23565;SDS011;22140;48.988;8.544;2023-03-08T04:57:45;8.63;;;2.70;;
23565;SDS011;22140;48.988;8.544;2023-03-08T05:02:47;9.35;;;2.97;;
23565;SDS011;22140;48.988;8.544;2023-03-08T05:07:48;11.82;;;3.45;;
23565;SDS011;22140;48.988;8.544;2023-03-08T05:12:49;11.97;;;4.20;;
23565;SDS011;22140;48.988;8.544;2023-03-08T05:17:51;10.95;;;3.85;;
23565;SDS011;22140;48.988;8.544;2023-03-08T05:22:52;11.20;;;3.87;;
23565;SDS011;22140;48.988;8.544;2023-03-08T05:27:59;10.73;;;4.38;;
23565;SDS011;22140;48.988;8.544;2023-03-08T05:33:01;12.65;;;4.07;;
23565;SDS011;22140;48.988;8.544;2023-03-08T05:38:03;12.37;;;4.53;;
23565;SDS011;22140;48.988;8.544;2023-03-08T05:43:04;11.77;;;4.38;;
23565;SDS011;22140;48.988;8.544;2023-03-08T05:48:05;10.90;;;4.00;;
23565;SDS011;22140;48.988;8.544;2023-03-08T05:53:07;12.90;;;4.32;;
23565;SDS011;22140;48.988;8.544;2023-03-08T05:58:08;16.20;;;5.80;;
23565;SDS011;22140;48.988;8.544;2023-03-08T06:03:10;8.43;;;3.10;;
23565;SDS011;22140;48.988;8.544;2023-03-08T06:08:11;10.63;;;3.35;;
23565;SDS011;22140;48.988;8.544;2023-03-08T06:13:13;9.53;;;3.90;;
23565;SDS011;22140;48.988;8.544;2023-03-08T06:18:14;14.25;;;3.40;;
23565;SDS011;22140;48.988;8.544;2023-03-08T06:23:15;9.60;;;3.17;;
23565;SDS011;22140;48.988;8.544;2023-03-08T06:28:19;9.40;;;3.17;;
23565;SDS011;22140;48.988;8.544;2023-03-08T06:33:26;11.88;;;4.13;;
23565;SDS011;22140;48.988;8.544;2023-03-08T06:38:30;11.03;;;3.43;;
23565;SDS011;22140;48.988;8.544;2023-03-08T06:43:33;13.35;;;4.60;;
23565;SDS011;22140;48.988;8.544;2023-03-08T06:48:36;16.83;;;4.57;;
23565;SDS011;22140;48.988;8.544;2023-03-08T06:53:37;10.23;;;4.47;;
23565;SDS011;22140;48.988;8.544;2023-03-08T06:58:39;15.15;;;5.18;;
23565;SDS011;22140;48.988;8.544;2023-03-08T07:03:40;18.73;;;6.37;;
23565;SDS011;22140;48.988;8.544;2023-03-08T07:08:42;16.50;;;6.00;;
23565;SDS011;22140;48.988;8.544;2023-03-08T07:13:43;13.38;;;5.20;;
23565;SDS011;22140;48.988;8.544;2023-03-08T07:18:45;11.13;;;4.60;;
23565;SDS011;22140;48.988;8.544;2023-03-08T07:23:46;12.68;;;5.10;;
23565;SDS011;22140;48.988;8.544;2023-03-08T07:28:48;22.83;;;7.90;;
23565;SDS011;22140;48.988;8.544;2023-03-08T07:33:50;15.65;;;5.45;;
23565;SDS011;22140;48.988;8.544;2023-03-08T07:38:51;16.10;;;5.38;;
23565;SDS011;22140;48.988;8.544;2023-03-08T07:43:53;17.97;;;6.33;;
23565;SDS011;22140;48.988;8.544;2023-03-08T07:48:54;13.98;;;4.97;;
23565;SDS011;22140;48.988;8.544;2023-03-08T07:53:55;14.07;;;5.27;;
23565;SDS011;22140;48.988;8.544;2023-03-08T07:58:57;14.07;;;5.50;;
23565;SDS011;22140;48.988;8.544;2023-03-08T08:03:58;14.13;;;5.60;;
23565;SDS011;22140;48.988;8.544;2023-03-08T08:09:00;16.93;;;5.90;;
23565;SDS011;22140;48.988;8.544;2023-03-08T08:14:01;13.18;;;5.40;;
23565;SDS011;22140;48.988;8.544;2023-03-08T08:19:03;14.47;;;5.17;;
23565;SDS011;22140;48.988;8.544;2023-03-08T08:24:05;14.98;;;5.70;;
23565;SDS011;22140;48.988;8.544;2023-03-08T08:29:06;16.67;;;5.55;;
23565;SDS011;22140;48.988;8.544;2023-03-08T08:34:08;13.10;;;5.70;;
23565;SDS011;22140;48.988;8.544;2023-03-08T08:39:10;15.00;;;5.93;;
23565;SDS011;22140;48.988;8.544;2023-03-08T08:44:11;14.80;;;6.10;;
23565;SDS011;22140;48.988;8.544;2023-03-08T08:49:12;13.13;;;5.70;;
23565;SDS011;22140;48.988;8.544;2023-03-08T08:54:14;14.93;;;6.00;;
23565;SDS011;22140;48.988;8.544;2023-03-08T08:59:15;17.60;;;6.93;;
23565;SDS011;22140;48.988;8.544;2023-03-08T09:04:17;15.27;;;6.10;;
23565;SDS011;22140;48.988;8.544;2023-03-08T09:09:20;17.33;;;6.23;;
23565;SDS011;22140;48.988;8.544;2023-03-08T09:14:22;15.05;;;5.47;;
23565;SDS011;22140;48.988;8.544;2023-03-08T09:19:23;14.57;;;5.90;;
23565;SDS011;22140;48.988;8.544;2023-03-08T09:24:24;16.13;;;6.30;;
23565;SDS011;22140;48.988;8.544;2023-03-08T09:29:26;16.83;;;6.55;;
23565;SDS011;22140;48.988;8.544;2023-03-08T09:34:27;15.00;;;5.77;;
23565;SDS011;22140;48.988;8.544;2023-03-08T09:39:28;15.82;;;6.43;;
23565;SDS011;22140;48.988;8.544;2023-03-08T09:49:44;16.83;;;6.67;;
23565;SDS011;22140;48.988;8.544;2023-03-08T09:54:47;17.00;;;7.03;;
23565;SDS011;22140;48.988;8.544;2023-03-08T09:59:52;17.03;;;6.70;;
23565;SDS011;22140;48.988;8.544;2023-03-08T10:15:15;18.60;;;8.00;;
23565;SDS011;22140;48.988;8.544;2023-03-08T10:20:19;20.95;;;7.55;;
23565;SDS011;22140;48.988;8.544;2023-03-08T10:25:29;16.83;;;7.47;;
23565;SDS011;22140;48.988;8.544;2023-03-08T10:30:35;22.13;;;9.05;;
23565;SDS011;22140;48.988;8.544;2023-03-08T10:35:48;20.17;;;8.68;;
23565;SDS011;22140;48.988;8.544;2023-03-08T10:41:02;16.37;;;7.90;;
23565;SDS011;22140;48.988;8.544;2023-03-08T10:46:09;18.17;;;8.50;;
23565;SDS011;22140;48.988;8.544;2023-03-08T10:51:19;17.77;;;8.33;;
23565;SDS011;22140;48.988;8.544;2023-03-08T10:56:42;17.02;;;7.68;;
23565;SDS011;22140;48.988;8.544;2023-03-08T11:01:51;17.00;;;8.07;;
23565;SDS011;22140;48.988;8.544;2023-03-08T11:06:53;15.73;;;6.87;;
23565;SDS011;22140;48.988;8.544;2023-03-08T11:11:55;21.40;;;8.40;;
23565;SDS011;22140;48.988;8.544;2023-03-08T11:22:20;36.33;;;16.33;;
23565;SDS011;22140;48.988;8.544;2023-03-08T11:32:45;10.23;;;4.10;;
23565;SDS011;22140;48.988;8.544;2023-03-08T11:37:51;6.05;;;1.80;;
23565;SDS011;22140;48.988;8.544;2023-03-08T11:48:05;5.70;;;1.27;;
23565;SDS011;22140;48.988;8.544;2023-03-08T11:53:28;7.47;;;1.98;;
23565;SDS011;22140;48.988;8.544;2023-03-08T11:58:34;4.67;;;1.20;;
23565;SDS011;22140;48.988;8.544;2023-03-08T12:03:37;4.72;;;1.00;;
23565;SDS011;22140;48.988;8.544;2023-03-08T12:08:47;4.90;;;1.00;;
23565;SDS011;22140;48.988;8.544;2023-03-08T12:13:51;4.60;;;0.93;;
23565;SDS011;22140;48.988;8.544;2023-03-08T12:18:55;4.30;;;0.73;;
23565;SDS011;22140;48.988;8.544;2023-03-08T12:24:07;6.17;;;1.00;;
23565;SDS011;22140;48.988;8.544;2023-03-08T12:29:15;6.72;;;1.40;;
23565;SDS011;22140;48.988;8.544;2023-03-08T12:34:26;5.03;;;1.10;;
23565;SDS011;22140;48.988;8.544;2023-03-08T12:39:29;4.15;;;1.00;;
23565;SDS011;22140;48.988;8.544;2023-03-08T12:44:30;5.47;;;1.08;;
23565;SDS011;22140;48.988;8.544;2023-03-08T12:49:33;3.47;;;0.90;;
23565;SDS011;22140;48.988;8.544;2023-03-08T12:54:35;5.45;;;1.27;;
23565;SDS011;22140;48.988;8.544;2023-03-08T12:59:37;4.17;;;0.90;;
23565;SDS011;22140;48.988;8.544;2023-03-08T13:04:39;6.38;;;0.90;;
23565;SDS011;22140;48.988;8.544;2023-03-08T13:09:48;5.03;;;1.20;;
23565;SDS011;22140;48.988;8.544;2023-03-08T13:14:59;8.63;;;2.20;;
23565;SDS011;22140;48.988;8.544;2023-03-08T13:20:19;3.42;;;0.80;;
23565;SDS011;22140;48.988;8.544;2023-03-08T13:30:55;3.15;;;0.80;;
23565;SDS011;22140;48.988;8.544;2023-03-08T13:36:01;5.00;;;1.48;;
23565;SDS011;22140;48.988;8.544;2023-03-08T13:41:03;3.70;;;0.80;;
23565;SDS011;22140;48.988;8.544;2023-03-08T13:46:09;3.55;;;0.70;;
23565;SDS011;22140;48.988;8.544;2023-03-08T13:51:11;3.47;;;0.80;;
23565;SDS011;22140;48.988;8.544;2023-03-08T13:56:21;3.50;;;0.90;;
23565;SDS011;22140;48.988;8.544;2023-03-08T14:01:24;3.90;;;0.90;;
23565;SDS011;22140;48.988;8.544;2023-03-08T14:06:30;3.80;;;0.90;;
23565;SDS011;22140;48.988;8.544;2023-03-08T14:11:34;4.85;;;0.73;;
23565;SDS011;22140;48.988;8.544;2023-03-08T14:16:37;2.67;;;0.70;;
23565;SDS011;22140;48.988;8.544;2023-03-08T14:21:46;5.93;;;1.48;;
23565;SDS011;22140;48.988;8.544;2023-03-08T14:42:17;4.13;;;1.17;;
23565;SDS011;22140;48.988;8.544;2023-03-08T14:47:27;4.38;;;1.00;;
23565;SDS011;22140;48.988;8.544;2023-03-08T14:52:30;3.00;;;0.70;;
23565;SDS011;22140;48.988;8.544;2023-03-08T14:57:31;4.20;;;1.00;;
23565;SDS011;22140;48.988;8.544;2023-03-08T15:02:33;5.68;;;1.10;;
23565;SDS011;22140;48.988;8.544;2023-03-08T15:07:34;3.77;;;1.00;;
23565;SDS011;22140;48.988;8.544;2023-03-08T15:12:37;6.55;;;1.88;;
23565;SDS011;22140;48.988;8.544;2023-03-08T15:17:38;6.97;;;2.08;;
23565;SDS011;22140;48.988;8.544;2023-03-08T15:22:43;5.33;;;1.40;;
23565;SDS011;22140;48.988;8.544;2023-03-08T15:27:45;11.25;;;3.70;;
23565;SDS011;22140;48.988;8.544;2023-03-08T15:32:49;13.33;;;4.73;;
23565;SDS011;22140;48.988;8.544;2023-03-08T15:37:51;10.43;;;3.28;;
23565;SDS011;22140;48.988;8.544;2023-03-08T15:42:52;11.27;;;4.65;;
23565;SDS011;22140;48.988;8.544;2023-03-08T15:47:58;6.17;;;1.60;;
23565;SDS011;22140;48.988;8.544;2023-03-08T15:53:00;17.83;;;6.03;;
23565;SDS011;22140;48.988;8.544;2023-03-08T15:58:01;10.47;;;3.67;;
23565;SDS011;22140;48.988;8.544;2023-03-08T16:03:02;16.17;;;6.07;;
23565;SDS011;22140;48.988;8.544;2023-03-08T16:08:04;16.63;;;6.32;;
23565;SDS011;22140;48.988;8.544;2023-03-08T16:13:06;16.77;;;7.27;;
23565;SDS011;22140;48.988;8.544;2023-03-08T16:18:07;11.52;;;4.28;;
23565;SDS011;22140;48.988;8.544;2023-03-08T16:23:08;8.03;;;2.70;;
23565;SDS011;22140;48.988;8.544;2023-03-08T16:28:10;8.43;;;2.45;;
23565;SDS011;22140;48.988;8.544;2023-03-08T16:33:11;6.10;;;1.77;;
23565;SDS011;22140;48.988;8.544;2023-03-08T16:38:12;3.70;;;0.90;;
23565;SDS011;22140;48.988;8.544;2023-03-08T16:43:16;5.50;;;1.17;;
23565;SDS011;22140;48.988;8.544;2023-03-08T16:48:18;5.30;;;1.27;;
23565;SDS011;22140;48.988;8.544;2023-03-08T16:53:19;4.70;;;0.95;;
23565;SDS011;22140;48.988;8.544;2023-03-08T16:58:20;6.85;;;1.40;;
23565;SDS011;22140;48.988;8.544;2023-03-08T17:03:22;4.07;;;0.90;;
23565;SDS011;22140;48.988;8.544;2023-03-08T17:08:23;5.47;;;1.10;;
23565;SDS011;22140;48.988;8.544;2023-03-08T17:13:24;3.80;;;1.10;;
23565;SDS011;22140;48.988;8.544;2023-03-08T17:18:26;5.03;;;1.45;;
23565;SDS011;22140;48.988;8.544;2023-03-08T17:23:27;5.68;;;1.20;;
23565;SDS011;22140;48.988;8.544;2023-03-08T17:28:28;5.63;;;1.43;;
23565;SDS011;22140;48.988;8.544;2023-03-08T17:33:30;3.10;;;0.68;;
23565;SDS011;22140;48.988;8.544;2023-03-08T17:38:31;4.53;;;1.10;;
23565;SDS011;22140;48.988;8.544;2023-03-08T17:43:33;5.82;;;1.05;;
23565;SDS011;22140;48.988;8.544;2023-03-08T17:48:35;5.32;;;1.00;;
23565;SDS011;22140;48.988;8.544;2023-03-08T17:53:36;2.27;;;0.47;;
23565;SDS011;22140;48.988;8.544;2023-03-08T17:58:38;5.28;;;1.38;;
23565;SDS011;22140;48.988;8.544;2023-03-08T18:03:40;6.00;;;1.40;;
23565;SDS011;22140;48.988;8.544;2023-03-08T18:08:41;5.03;;;1.30;;
23565;SDS011;22140;48.988;8.544;2023-03-08T18:13:42;3.63;;;0.82;;
23565;SDS011;22140;48.988;8.544;2023-03-08T18:18:43;2.80;;;0.60;;
23565;SDS011;22140;48.988;8.544;2023-03-08T18:23:46;4.50;;;0.88;;
23565;SDS011;22140;48.988;8.544;2023-03-08T18:28:47;5.90;;;1.30;;
23565;SDS011;22140;48.988;8.544;2023-03-08T18:33:49;7.30;;;1.17;;
23565;SDS011;22140;48.988;8.544;2023-03-08T18:38:53;3.50;;;0.52;;
23565;SDS011;22140;48.988;8.544;2023-03-08T18:43:55;4.17;;;0.90;;
23565;SDS011;22140;48.988;8.544;2023-03-08T18:49:10;3.83;;;0.90;;
23565;SDS011;22140;48.988;8.544;2023-03-08T18:54:12;2.97;;;0.70;;
23565;SDS011;22140;48.988;8.544;2023-03-08T18:59:14;4.07;;;0.80;;
23565;SDS011;22140;48.988;8.544;2023-03-08T19:04:15;5.32;;;1.30;;
23565;SDS011;22140;48.988;8.544;2023-03-08T19:09:17;5.77;;;1.20;;
23565;SDS011;22140;48.988;8.544;2023-03-08T19:14:18;2.63;;;0.50;;
23565;SDS011;22140;48.988;8.544;2023-03-08T19:19:20;2.37;;;0.60;;
23565;SDS011;22140;48.988;8.544;2023-03-08T19:24:21;2.20;;;0.60;;
23565;SDS011;22140;48.988;8.544;2023-03-08T19:29:27;3.17;;;0.70;;
23565;SDS011;22140;48.988;8.544;2023-03-08T19:34:32;2.70;;;0.60;;
23565;SDS011;22140;48.988;8.544;2023-03-08T19:39:35;3.35;;;0.70;;
23565;SDS011;22140;48.988;8.544;2023-03-08T19:44:37;3.37;;;0.77;;
23565;SDS011;22140;48.988;8.544;2023-03-08T19:49:38;4.32;;;0.82;;
23565;SDS011;22140;48.988;8.544;2023-03-08T19:54:40;5.30;;;1.00;;
23565;SDS011;22140;48.988;8.544;2023-03-08T19:59:45;5.17;;;1.03;;
23565;SDS011;22140;48.988;8.544;2023-03-08T20:04:46;3.50;;;0.73;;
23565;SDS011;22140;48.988;8.544;2023-03-08T20:09:50;4.27;;;1.00;;
23565;SDS011;22140;48.988;8.544;2023-03-08T20:14:51;5.65;;;1.00;;
23565;SDS011;22140;48.988;8.544;2023-03-08T20:19:53;5.90;;;1.30;;
23565;SDS011;22140;48.988;8.544;2023-03-08T20:24:54;6.70;;;1.30;;
23565;SDS011;22140;48.988;8.544;2023-03-08T20:29:55;4.65;;;1.30;;
23565;SDS011;22140;48.988;8.544;2023-03-08T20:34:57;3.93;;;0.93;;
23565;SDS011;22140;48.988;8.544;2023-03-08T20:39:58;4.40;;;1.10;;
23565;SDS011;22140;48.988;8.544;2023-03-08T20:45:00;4.85;;;1.20;;
23565;SDS011;22140;48.988;8.544;2023-03-08T20:50:01;5.10;;;1.40;;
23565;SDS011;22140;48.988;8.544;2023-03-08T20:55:02;4.30;;;1.20;;
23565;SDS011;22140;48.988;8.544;2023-03-08T21:00:04;4.13;;;1.27;;
23565;SDS011;22140;48.988;8.544;2023-03-08T21:05:07;5.05;;;1.20;;
23565;SDS011;22140;48.988;8.544;2023-03-08T21:10:08;6.20;;;1.33;;
23565;SDS011;22140;48.988;8.544;2023-03-08T21:15:10;5.33;;;1.30;;
23565;SDS011;22140;48.988;8.544;2023-03-08T21:20:11;4.75;;;1.10;;
23565;SDS011;22140;48.988;8.544;2023-03-08T21:25:12;5.63;;;1.10;;
23565;SDS011;22140;48.988;8.544;2023-03-08T21:30:14;3.53;;;0.85;;
23565;SDS011;22140;48.988;8.544;2023-03-08T21:35:15;4.55;;;0.80;;
23565;SDS011;22140;48.988;8.544;2023-03-08T21:40:17;4.67;;;0.97;;
23565;SDS011;22140;48.988;8.544;2023-03-08T21:45:18;4.28;;;0.90;;
23565;SDS011;22140;48.988;8.544;2023-03-08T21:50:20;4.70;;;1.33;;
23565;SDS011;22140;48.988;8.544;2023-03-08T21:55:21;4.13;;;0.98;;
23565;SDS011;22140;48.988;8.544;2023-03-08T22:00:22;6.07;;;1.30;;
23565;SDS011;22140;48.988;8.544;2023-03-08T22:05:25;5.73;;;1.50;;
23565;SDS011;22140;48.988;8.544;2023-03-08T22:10:26;5.72;;;1.70;;
23565;SDS011;22140;48.988;8.544;2023-03-08T22:15:28;6.77;;;1.43;;
23565;SDS011;22140;48.988;8.544;2023-03-08T22:20:29;6.20;;;1.20;;
23565;SDS011;22140;48.988;8.544;2023-03-08T22:25:30;4.05;;;0.85;;
23565;SDS011;22140;48.988;8.544;2023-03-08T22:30:32;5.60;;;1.00;;
23565;SDS011;22140;48.988;8.544;2023-03-08T22:35:33;6.47;;;1.27;;
23565;SDS011;22140;48.988;8.544;2023-03-08T22:40:35;7.67;;;1.30;;
23565;SDS011;22140;48.988;8.544;2023-03-08T22:45:38;4.90;;;1.40;;
23565;SDS011;22140;48.988;8.544;2023-03-08T22:50:39;6.65;;;1.60;;
23565;SDS011;22140;48.988;8.544;2023-03-08T22:55:45;5.93;;;1.67;;
23565;SDS011;22140;48.988;8.544;2023-03-08T23:00:46;7.97;;;1.45;;
23565;SDS011;22140;48.988;8.544;2023-03-08T23:05:47;5.50;;;1.30;;
23565;SDS011;22140;48.988;8.544;2023-03-08T23:10:49;7.85;;;1.40;;
23565;SDS011;22140;48.988;8.544;2023-03-08T23:15:50;6.00;;;1.38;;
23565;SDS011;22140;48.988;8.544;2023-03-08T23:20:51;7.47;;;1.53;;
23565;SDS011;22140;48.988;8.544;2023-03-08T23:25:53;5.53;;;1.25;;
23565;SDS011;22140;48.988;8.544;2023-03-08T23:30:54;5.47;;;1.10;;
23565;SDS011;22140;48.988;8.544;2023-03-08T23:35:55;6.60;;;1.20;;
23565;SDS011;22140;48.988;8.544;2023-03-08T23:40:57;4.75;;;1.20;;
23565;SDS011;22140;48.988;8.544;2023-03-08T23:45:59;4.67;;;1.00;;
23565;SDS011;22140;48.988;8.544;2023-03-08T23:51:07;4.78;;;0.80;;
23565;SDS011;22140;48.988;8.544;2023-03-08T23:56:15;5.53;;;1.17;;
